sensor_id;sensor_type;location;lat;lon;timestamp;temperature;humidity
77039;DHT22;65970;50.476;4.840;2023-12-22T00:00:48;10.50;48.90
77039;DHT22;65970;50.476;4.840;2023-12-22T00:05:49;10.50;48.80
77039;DHT22;65970;50.476;4.840;2023-12-22T00:10:49;10.50;48.90
77039;DHT22;65970;50.476;4.840;2023-12-22T00:15:50;10.50;48.80
77039;DHT22;65970;50.476;4.840;2023-12-22T00:20:51;10.50;48.80
77039;DHT22;65970;50.476;4.840;2023-12-22T00:25:51;10.50;48.70
77039;DHT22;65970;50.476;4.840;2023-12-22T00:30:52;10.40;48.60
77039;DHT22;65970;50.476;4.840;2023-12-22T00:35:52;10.50;48.80
77039;DHT22;65970;50.476;4.840;2023-12-22T00:40:53;10.40;48.60
77039;DHT22;65970;50.476;4.840;2023-12-22T00:45:53;10.40;48.40
77039;DHT22;65970;50.476;4.840;2023-12-22T00:50:54;10.40;48.40
77039;DHT22;65970;50.476;4.840;2023-12-22T00:55:54;10.40;48.40
77039;DHT22;65970;50.476;4.840;2023-12-22T01:00:55;10.40;48.40
77039;DHT22;65970;50.476;4.840;2023-12-22T01:05:55;10.40;48.30
77039;DHT22;65970;50.476;4.840;2023-12-22T01:10:56;10.30;48.30
77039;DHT22;65970;50.476;4.840;2023-12-22T01:15:57;10.40;48.30
77039;DHT22;65970;50.476;4.840;2023-12-22T01:20:57;10.30;48.20
77039;DHT22;65970;50.476;4.840;2023-12-22T01:25:58;10.30;48.20
77039;DHT22;65970;50.476;4.840;2023-12-22T01:30:58;10.30;48.20
77039;DHT22;65970;50.476;4.840;2023-12-22T01:35:59;10.30;48.20
77039;DHT22;65970;50.476;4.840;2023-12-22T01:40:59;10.30;48.10
77039;DHT22;65970;50.476;4.840;2023-12-22T01:46:01;10.30;48.10
77039;DHT22;65970;50.476;4.840;2023-12-22T01:51:02;10.20;48.10
77039;DHT22;65970;50.476;4.840;2023-12-22T01:56:04;10.20;48.10
77039;DHT22;65970;50.476;4.840;2023-12-22T02:01:06;10.20;48.20
77039;DHT22;65970;50.476;4.840;2023-12-22T02:06:07;10.20;48.20
77039;DHT22;65970;50.476;4.840;2023-12-22T02:11:07;10.20;48.30
77039;DHT22;65970;50.476;4.840;2023-12-22T02:16:20;10.20;48.30
77039;DHT22;65970;50.476;4.840;2023-12-22T02:21:26;10.20;48.30
77039;DHT22;65970;50.476;4.840;2023-12-22T02:26:36;10.10;48.30
77039;DHT22;65970;50.476;4.840;2023-12-22T02:31:41;10.20;47.40
77039;DHT22;65970;50.476;4.840;2023-12-22T02:36:42;10.10;48.30
77039;DHT22;65970;50.476;4.840;2023-12-22T02:41:44;10.10;48.30
77039;DHT22;65970;50.476;4.840;2023-12-22T02:46:46;10.10;48.40
77039;DHT22;65970;50.476;4.840;2023-12-22T02:51:47;10.10;48.30
77039;DHT22;65970;50.476;4.840;2023-12-22T02:56:47;10.10;48.30
77039;DHT22;65970;50.476;4.840;2023-12-22T03:01:48;10.10;47.30
77039;DHT22;65970;50.476;4.840;2023-12-22T03:06:48;10.10;48.20
77039;DHT22;65970;50.476;4.840;2023-12-22T03:11:49;10.10;48.10
77039;DHT22;65970;50.476;4.840;2023-12-22T03:16:50;10.10;47.90
77039;DHT22;65970;50.476;4.840;2023-12-22T03:21:50;10.00;47.90
77039;DHT22;65970;50.476;4.840;2023-12-22T03:26:51;10.00;47.70
77039;DHT22;65970;50.476;4.840;2023-12-22T03:31:52;10.00;47.60
77039;DHT22;65970;50.476;4.840;2023-12-22T03:36:52;10.00;47.50
77039;DHT22;65970;50.476;4.840;2023-12-22T03:41:53;10.00;47.50
77039;DHT22;65970;50.476;4.840;2023-12-22T03:46:54;10.00;47.50
77039;DHT22;65970;50.476;4.840;2023-12-22T03:51:54;10.00;47.60
77039;DHT22;65970;50.476;4.840;2023-12-22T03:56:55;10.00;47.60
77039;DHT22;65970;50.476;4.840;2023-12-22T04:01:55;10.00;47.60
77039;DHT22;65970;50.476;4.840;2023-12-22T04:06:56;10.00;47.70
77039;DHT22;65970;50.476;4.840;2023-12-22T04:11:57;10.00;47.70
77039;DHT22;65970;50.476;4.840;2023-12-22T04:16:57;9.90;47.70
77039;DHT22;65970;50.476;4.840;2023-12-22T04:21:58;9.90;47.80
77039;DHT22;65970;50.476;4.840;2023-12-22T04:26:58;9.90;47.70
77039;DHT22;65970;50.476;4.840;2023-12-22T04:31:59;9.90;47.80
77039;DHT22;65970;50.476;4.840;2023-12-22T04:36:59;10.00;47.90
77039;DHT22;65970;50.476;4.840;2023-12-22T04:42:00;9.90;47.90
77039;DHT22;65970;50.476;4.840;2023-12-22T04:47:00;9.90;47.90
77039;DHT22;65970;50.476;4.840;2023-12-22T04:52:01;9.90;47.90
77039;DHT22;65970;50.476;4.840;2023-12-22T04:57:02;9.90;47.90
77039;DHT22;65970;50.476;4.840;2023-12-22T05:02:03;9.90;47.90
77039;DHT22;65970;50.476;4.840;2023-12-22T05:07:03;9.90;47.90
77039;DHT22;65970;50.476;4.840;2023-12-22T05:12:04;9.90;48.00
77039;DHT22;65970;50.476;4.840;2023-12-22T05:17:05;9.90;47.00
77039;DHT22;65970;50.476;4.840;2023-12-22T05:22:05;9.90;47.90
77039;DHT22;65970;50.476;4.840;2023-12-22T05:27:06;9.90;47.90
77039;DHT22;65970;50.476;4.840;2023-12-22T05:32:06;9.80;47.80
77039;DHT22;65970;50.476;4.840;2023-12-22T05:37:07;9.80;47.80
77039;DHT22;65970;50.476;4.840;2023-12-22T05:42:08;9.90;47.90
77039;DHT22;65970;50.476;4.840;2023-12-22T05:47:08;9.90;47.90
77039;DHT22;65970;50.476;4.840;2023-12-22T05:52:09;9.80;47.80
77039;DHT22;65970;50.476;4.840;2023-12-22T05:57:10;9.80;47.80
77039;DHT22;65970;50.476;4.840;2023-12-22T06:02:10;9.80;47.80
77039;DHT22;65970;50.476;4.840;2023-12-22T06:07:11;9.80;47.80
77039;DHT22;65970;50.476;4.840;2023-12-22T06:12:11;9.80;47.80
77039;DHT22;65970;50.476;4.840;2023-12-22T06:17:12;9.80;47.90
77039;DHT22;65970;50.476;4.840;2023-12-22T06:22:12;9.80;47.80
77039;DHT22;65970;50.476;4.840;2023-12-22T06:27:13;9.80;47.90
77039;DHT22;65970;50.476;4.840;2023-12-22T06:32:14;9.80;47.90
77039;DHT22;65970;50.476;4.840;2023-12-22T06:37:14;9.80;47.80
77039;DHT22;65970;50.476;4.840;2023-12-22T06:42:15;9.80;47.90
77039;DHT22;65970;50.476;4.840;2023-12-22T06:47:15;9.80;48.00
77039;DHT22;65970;50.476;4.840;2023-12-22T06:52:16;9.70;47.90
77039;DHT22;65970;50.476;4.840;2023-12-22T06:57:16;9.70;47.90
77039;DHT22;65970;50.476;4.840;2023-12-22T07:02:17;9.70;47.00
77039;DHT22;65970;50.476;4.840;2023-12-22T07:07:17;9.70;47.90
77039;DHT22;65970;50.476;4.840;2023-12-22T07:12:18;9.70;48.10
77039;DHT22;65970;50.476;4.840;2023-12-22T07:17:18;9.70;48.10
77039;DHT22;65970;50.476;4.840;2023-12-22T07:22:19;9.70;48.10
77039;DHT22;65970;50.476;4.840;2023-12-22T07:27:19;9.80;48.10
77039;DHT22;65970;50.476;4.840;2023-12-22T07:32:22;9.80;48.20
77039;DHT22;65970;50.476;4.840;2023-12-22T07:37:23;9.80;48.20
77039;DHT22;65970;50.476;4.840;2023-12-22T07:42:23;9.80;48.20
77039;DHT22;65970;50.476;4.840;2023-12-22T07:47:24;9.80;48.10
77039;DHT22;65970;50.476;4.840;2023-12-22T07:52:24;9.80;48.20
77039;DHT22;65970;50.476;4.840;2023-12-22T07:57:25;9.80;48.20
77039;DHT22;65970;50.476;4.840;2023-12-22T08:02:25;9.80;48.30
77039;DHT22;65970;50.476;4.840;2023-12-22T08:07:26;9.80;48.30
77039;DHT22;65970;50.476;4.840;2023-12-22T08:12:26;9.80;48.30
77039;DHT22;65970;50.476;4.840;2023-12-22T08:17:29;9.80;48.40
77039;DHT22;65970;50.476;4.840;2023-12-22T08:22:29;9.90;48.40
77039;DHT22;65970;50.476;4.840;2023-12-22T08:27:30;9.80;47.00
77039;DHT22;65970;50.476;4.840;2023-12-22T08:32:30;9.90;48.40
77039;DHT22;65970;50.476;4.840;2023-12-22T08:37:31;9.90;48.40
77039;DHT22;65970;50.476;4.840;2023-12-22T08:42:32;9.90;48.50
77039;DHT22;65970;50.476;4.840;2023-12-22T08:47:32;9.90;48.50
77039;DHT22;65970;50.476;4.840;2023-12-22T08:52:33;9.90;48.50
77039;DHT22;65970;50.476;4.840;2023-12-22T08:57:34;9.90;48.50
77039;DHT22;65970;50.476;4.840;2023-12-22T09:02:34;9.90;48.50
77039;DHT22;65970;50.476;4.840;2023-12-22T09:07:35;10.00;48.60
77039;DHT22;65970;50.476;4.840;2023-12-22T09:12:35;10.00;48.70
77039;DHT22;65970;50.476;4.840;2023-12-22T09:17:36;10.00;48.90
77039;DHT22;65970;50.476;4.840;2023-12-22T09:28:14;10.00;49.10
77039;DHT22;65970;50.476;4.840;2023-12-22T09:33:15;10.00;49.10
77039;DHT22;65970;50.476;4.840;2023-12-22T09:38:15;10.00;49.20
77039;DHT22;65970;50.476;4.840;2023-12-22T09:43:16;10.00;49.30
77039;DHT22;65970;50.476;4.840;2023-12-22T09:48:20;10.10;49.50
77039;DHT22;65970;50.476;4.840;2023-12-22T09:53:21;10.10;49.40
77039;DHT22;65970;50.476;4.840;2023-12-22T09:58:23;10.10;49.60
77039;DHT22;65970;50.476;4.840;2023-12-22T10:03:24;10.10;49.50
77039;DHT22;65970;50.476;4.840;2023-12-22T10:08:27;10.20;49.50
77039;DHT22;65970;50.476;4.840;2023-12-22T10:13:28;10.20;49.40
77039;DHT22;65970;50.476;4.840;2023-12-22T10:18:29;10.20;49.50
77039;DHT22;65970;50.476;4.840;2023-12-22T10:23:29;10.20;49.50
77039;DHT22;65970;50.476;4.840;2023-12-22T10:28:30;10.20;49.50
77039;DHT22;65970;50.476;4.840;2023-12-22T10:33:30;10.30;49.70
77039;DHT22;65970;50.476;4.840;2023-12-22T10:38:34;10.30;49.70
77039;DHT22;65970;50.476;4.840;2023-12-22T10:43:41;10.30;49.70
77039;DHT22;65970;50.476;4.840;2023-12-22T10:48:41;10.30;49.80
77039;DHT22;65970;50.476;4.840;2023-12-22T10:53:42;10.30;49.90
77039;DHT22;65970;50.476;4.840;2023-12-22T10:58:43;10.30;49.80
77039;DHT22;65970;50.476;4.840;2023-12-22T11:03:44;10.40;49.80
77039;DHT22;65970;50.476;4.840;2023-12-22T11:08:50;10.40;49.80
77039;DHT22;65970;50.476;4.840;2023-12-22T11:13:53;10.40;49.80
77039;DHT22;65970;50.476;4.840;2023-12-22T11:18:56;10.50;50.00
77039;DHT22;65970;50.476;4.840;2023-12-22T11:23:57;10.50;49.90
77039;DHT22;65970;50.476;4.840;2023-12-22T11:28:58;10.50;50.00
77039;DHT22;65970;50.476;4.840;2023-12-22T11:34:00;10.50;49.90
77039;DHT22;65970;50.476;4.840;2023-12-22T11:39:01;10.50;49.90
77039;DHT22;65970;50.476;4.840;2023-12-22T11:44:04;10.50;49.80
77039;DHT22;65970;50.476;4.840;2023-12-22T11:49:05;10.50;49.70
77039;DHT22;65970;50.476;4.840;2023-12-22T11:59:44;10.60;49.60
77039;DHT22;65970;50.476;4.840;2023-12-22T12:04:47;10.60;49.50
77039;DHT22;65970;50.476;4.840;2023-12-22T12:09:48;10.60;49.60
77039;DHT22;65970;50.476;4.840;2023-12-22T12:14:51;10.60;49.60
77039;DHT22;65970;50.476;4.840;2023-12-22T12:19:54;10.60;49.60
77039;DHT22;65970;50.476;4.840;2023-12-22T12:24:55;10.60;49.60
77039;DHT22;65970;50.476;4.840;2023-12-22T12:29:56;10.60;49.60
77039;DHT22;65970;50.476;4.840;2023-12-22T12:34:57;10.60;49.60
77039;DHT22;65970;50.476;4.840;2023-12-22T12:39:59;10.60;49.70
77039;DHT22;65970;50.476;4.840;2023-12-22T12:45:07;10.70;49.80
77039;DHT22;65970;50.476;4.840;2023-12-22T12:50:08;10.70;49.70
77039;DHT22;65970;50.476;4.840;2023-12-22T12:55:08;10.70;49.80
77039;DHT22;65970;50.476;4.840;2023-12-22T13:00:10;10.70;49.80
77039;DHT22;65970;50.476;4.840;2023-12-22T13:05:20;10.70;50.00
77039;DHT22;65970;50.476;4.840;2023-12-22T13:10:25;10.70;50.00
77039;DHT22;65970;50.476;4.840;2023-12-22T13:15:25;10.70;50.00
77039;DHT22;65970;50.476;4.840;2023-12-22T13:20:27;10.70;49.00
77039;DHT22;65970;50.476;4.840;2023-12-22T13:25:27;10.80;50.00
77039;DHT22;65970;50.476;4.840;2023-12-22T13:30:38;10.80;49.90
77039;DHT22;65970;50.476;4.840;2023-12-22T13:35:39;10.80;49.70
77039;DHT22;65970;50.476;4.840;2023-12-22T13:40:44;10.80;49.60
77039;DHT22;65970;50.476;4.840;2023-12-22T13:45:49;10.80;49.60
77039;DHT22;65970;50.476;4.840;2023-12-22T13:51:00;10.80;49.70
77039;DHT22;65970;50.476;4.840;2023-12-22T13:56:01;10.80;49.60
77039;DHT22;65970;50.476;4.840;2023-12-22T14:01:13;10.80;49.70
77039;DHT22;65970;50.476;4.840;2023-12-22T14:06:14;10.80;49.70
77039;DHT22;65970;50.476;4.840;2023-12-22T14:11:14;10.80;49.60
77039;DHT22;65970;50.476;4.840;2023-12-22T14:16:15;10.80;49.60
77039;DHT22;65970;50.476;4.840;2023-12-22T14:21:16;10.80;49.80
77039;DHT22;65970;50.476;4.840;2023-12-22T14:26:16;10.80;49.70
77039;DHT22;65970;50.476;4.840;2023-12-22T14:31:17;10.80;50.00
77039;DHT22;65970;50.476;4.840;2023-12-22T14:36:17;10.80;49.80
77039;DHT22;65970;50.476;4.840;2023-12-22T14:41:18;10.80;49.90
77039;DHT22;65970;50.476;4.840;2023-12-22T14:46:18;10.80;50.00
77039;DHT22;65970;50.476;4.840;2023-12-22T14:51:19;10.80;50.10
77039;DHT22;65970;50.476;4.840;2023-12-22T14:56:20;10.80;50.10
77039;DHT22;65970;50.476;4.840;2023-12-22T15:01:20;10.80;50.10
77039;DHT22;65970;50.476;4.840;2023-12-22T15:06:21;10.90;50.10
77039;DHT22;65970;50.476;4.840;2023-12-22T15:11:21;10.90;50.30
77039;DHT22;65970;50.476;4.840;2023-12-22T15:16:22;10.90;50.40
77039;DHT22;65970;50.476;4.840;2023-12-22T15:21:22;10.90;50.40
77039;DHT22;65970;50.476;4.840;2023-12-22T15:26:23;10.80;50.40
77039;DHT22;65970;50.476;4.840;2023-12-22T15:31:24;10.80;50.30
77039;DHT22;65970;50.476;4.840;2023-12-22T15:36:25;10.80;50.50
77039;DHT22;65970;50.476;4.840;2023-12-22T15:41:29;10.90;50.50
77039;DHT22;65970;50.476;4.840;2023-12-22T15:46:29;10.90;50.50
77039;DHT22;65970;50.476;4.840;2023-12-22T15:51:30;10.90;50.50
77039;DHT22;65970;50.476;4.840;2023-12-22T15:56:31;10.90;49.50
77039;DHT22;65970;50.476;4.840;2023-12-22T16:01:31;10.90;50.50
77039;DHT22;65970;50.476;4.840;2023-12-22T16:06:32;10.90;50.50
77039;DHT22;65970;50.476;4.840;2023-12-22T16:11:32;10.80;50.60
77039;DHT22;65970;50.476;4.840;2023-12-22T16:16:35;10.90;50.50
77039;DHT22;65970;50.476;4.840;2023-12-22T16:21:42;10.90;50.70
77039;DHT22;65970;50.476;4.840;2023-12-22T16:26:42;10.90;50.50
77039;DHT22;65970;50.476;4.840;2023-12-22T16:31:43;10.90;50.50
77039;DHT22;65970;50.476;4.840;2023-12-22T16:36:46;10.90;50.60
77039;DHT22;65970;50.476;4.840;2023-12-22T16:41:47;10.90;50.70
77039;DHT22;65970;50.476;4.840;2023-12-22T16:46:47;10.90;50.60
77039;DHT22;65970;50.476;4.840;2023-12-22T16:51:48;10.90;50.60
77039;DHT22;65970;50.476;4.840;2023-12-22T16:56:48;10.90;50.60
77039;DHT22;65970;50.476;4.840;2023-12-22T17:01:49;10.90;50.60
77039;DHT22;65970;50.476;4.840;2023-12-22T17:06:51;10.90;50.80
77039;DHT22;65970;50.476;4.840;2023-12-22T17:11:52;10.90;50.80
77039;DHT22;65970;50.476;4.840;2023-12-22T17:16:52;10.90;50.70
77039;DHT22;65970;50.476;4.840;2023-12-22T17:21:53;10.90;50.70
77039;DHT22;65970;50.476;4.840;2023-12-22T17:26:53;10.90;50.70
77039;DHT22;65970;50.476;4.840;2023-12-22T17:31:54;10.90;50.70
77039;DHT22;65970;50.476;4.840;2023-12-22T17:36:54;10.90;50.70
77039;DHT22;65970;50.476;4.840;2023-12-22T17:41:55;10.90;50.70
77039;DHT22;65970;50.476;4.840;2023-12-22T17:46:56;10.90;50.70
77039;DHT22;65970;50.476;4.840;2023-12-22T17:51:56;10.90;50.70
77039;DHT22;65970;50.476;4.840;2023-12-22T17:56:57;10.80;50.80
77039;DHT22;65970;50.476;4.840;2023-12-22T18:01:58;10.80;50.80
77039;DHT22;65970;50.476;4.840;2023-12-22T18:06:58;10.90;50.80
77039;DHT22;65970;50.476;4.840;2023-12-22T18:11:59;10.90;50.80
77039;DHT22;65970;50.476;4.840;2023-12-22T18:16:59;10.90;50.70
77039;DHT22;65970;50.476;4.840;2023-12-22T18:22:00;10.90;50.70
77039;DHT22;65970;50.476;4.840;2023-12-22T18:27:00;10.90;50.70
77039;DHT22;65970;50.476;4.840;2023-12-22T18:32:01;10.90;50.60
77039;DHT22;65970;50.476;4.840;2023-12-22T18:37:01;10.90;50.60
77039;DHT22;65970;50.476;4.840;2023-12-22T18:42:02;10.90;50.60
77039;DHT22;65970;50.476;4.840;2023-12-22T18:47:03;10.90;50.60
77039;DHT22;65970;50.476;4.840;2023-12-22T18:52:04;10.80;49.50
77039;DHT22;65970;50.476;4.840;2023-12-22T18:57:04;10.80;50.40
77039;DHT22;65970;50.476;4.840;2023-12-22T19:02:05;10.90;50.40
77039;DHT22;65970;50.476;4.840;2023-12-22T19:07:06;10.80;50.30
77039;DHT22;65970;50.476;4.840;2023-12-22T19:12:06;10.80;50.30
77039;DHT22;65970;50.476;4.840;2023-12-22T19:17:07;10.80;50.40
77039;DHT22;65970;50.476;4.840;2023-12-22T19:22:07;10.80;50.30
77039;DHT22;65970;50.476;4.840;2023-12-22T19:27:08;10.80;50.40
77039;DHT22;65970;50.476;4.840;2023-12-22T19:32:09;10.80;50.40
77039;DHT22;65970;50.476;4.840;2023-12-22T19:37:09;10.80;50.30
77039;DHT22;65970;50.476;4.840;2023-12-22T19:42:10;10.80;50.40
77039;DHT22;65970;50.476;4.840;2023-12-22T19:47:10;10.80;50.30
77039;DHT22;65970;50.476;4.840;2023-12-22T19:52:11;10.80;50.30
77039;DHT22;65970;50.476;4.840;2023-12-22T19:57:11;10.80;50.30
77039;DHT22;65970;50.476;4.840;2023-12-22T20:02:12;10.80;50.30
77039;DHT22;65970;50.476;4.840;2023-12-22T20:07:12;10.80;50.30
77039;DHT22;65970;50.476;4.840;2023-12-22T20:12:13;10.80;50.30
77039;DHT22;65970;50.476;4.840;2023-12-22T20:17:14;10.80;50.40
77039;DHT22;65970;50.476;4.840;2023-12-22T20:22:14;10.80;50.30
77039;DHT22;65970;50.476;4.840;2023-12-22T20:27:15;10.80;50.30
77039;DHT22;65970;50.476;4.840;2023-12-22T20:32:15;10.80;50.20
77039;DHT22;65970;50.476;4.840;2023-12-22T20:37:16;10.80;50.20
77039;DHT22;65970;50.476;4.840;2023-12-22T20:42:16;10.80;50.20
77039;DHT22;65970;50.476;4.840;2023-12-22T20:47:17;10.80;50.20
77039;DHT22;65970;50.476;4.840;2023-12-22T20:52:18;10.80;50.10
77039;DHT22;65970;50.476;4.840;2023-12-22T20:57:18;10.80;50.10
77039;DHT22;65970;50.476;4.840;2023-12-22T21:02:19;10.80;50.10
77039;DHT22;65970;50.476;4.840;2023-12-22T21:07:19;10.80;50.10
77039;DHT22;65970;50.476;4.840;2023-12-22T21:12:20;10.90;50.10
77039;DHT22;65970;50.476;4.840;2023-12-22T21:17:20;10.90;50.10
77039;DHT22;65970;50.476;4.840;2023-12-22T21:22:21;10.80;50.00
77039;DHT22;65970;50.476;4.840;2023-12-22T21:27:22;10.90;50.10
77039;DHT22;65970;50.476;4.840;2023-12-22T21:32:22;10.90;50.00
77039;DHT22;65970;50.476;4.840;2023-12-22T21:37:23;10.80;50.00
77039;DHT22;65970;50.476;4.840;2023-12-22T21:42:27;10.80;50.00
77039;DHT22;65970;50.476;4.840;2023-12-22T21:47:28;10.80;49.90
77039;DHT22;65970;50.476;4.840;2023-12-22T21:52:29;10.80;50.00
77039;DHT22;65970;50.476;4.840;2023-12-22T21:57:29;10.80;49.80
77039;DHT22;65970;50.476;4.840;2023-12-22T22:02:30;10.90;49.90
77039;DHT22;65970;50.476;4.840;2023-12-22T22:07:30;10.80;49.80
77039;DHT22;65970;50.476;4.840;2023-12-22T22:12:31;10.80;49.80
77039;DHT22;65970;50.476;4.840;2023-12-22T22:17:31;10.80;49.80
77039;DHT22;65970;50.476;4.840;2023-12-22T22:22:32;10.80;49.70
77039;DHT22;65970;50.476;4.840;2023-12-22T22:27:32;10.80;49.70
77039;DHT22;65970;50.476;4.840;2023-12-22T22:32:33;10.80;49.70
77039;DHT22;65970;50.476;4.840;2023-12-22T22:37:34;10.90;49.70
77039;DHT22;65970;50.476;4.840;2023-12-22T22:42:35;10.90;48.70
77039;DHT22;65970;50.476;4.840;2023-12-22T22:47:35;10.80;49.60
77039;DHT22;65970;50.476;4.840;2023-12-22T22:52:36;10.80;49.60
77039;DHT22;65970;50.476;4.840;2023-12-22T22:57:36;10.80;49.50
77039;DHT22;65970;50.476;4.840;2023-12-22T23:02:37;10.80;49.50
77039;DHT22;65970;50.476;4.840;2023-12-22T23:07:38;10.80;49.50
77039;DHT22;65970;50.476;4.840;2023-12-22T23:12:38;10.80;49.50
77039;DHT22;65970;50.476;4.840;2023-12-22T23:17:39;10.80;49.50
77039;DHT22;65970;50.476;4.840;2023-12-22T23:22:40;10.80;49.50
77039;DHT22;65970;50.476;4.840;2023-12-22T23:27:40;10.80;49.40
77039;DHT22;65970;50.476;4.840;2023-12-22T23:32:41;10.80;49.50
77039;DHT22;65970;50.476;4.840;2023-12-22T23:37:41;10.90;49.50
77039;DHT22;65970;50.476;4.840;2023-12-22T23:42:42;10.90;49.40
77039;DHT22;65970;50.476;4.840;2023-12-22T23:47:42;10.80;49.30
77039;DHT22;65970;50.476;4.840;2023-12-22T23:52:43;10.80;49.40
77039;DHT22;65970;50.476;4.840;2023-12-22T23:57:43;10.80;49.30
